Terminal Aerodrome Forecast
Issued by NWS

Home | Current Version | Previous Version | Text Only | Print | Product List | Glossary On
Versions: 1 2 3 4 5 6 7 8 9 10 11 12 13 14 15 16 17 18 19 20 21
000
FTUS43 KILX 272300
TAFBMI
TAF
KBMI 272325Z 2800/2824 05008KT P6SM SCT040 BKN150
     FM280800 06004KT 6SM BR SCT040 BKN150
     FM281400 12009KT P6SM VCTS SCT040CB BKN150=

USA.gov is the U.S. government's official web portal to all federal, state and local government web resources and services.